sensor_id;sensor_type;location;lat;lon;timestamp;P1;durP1;ratioP1;P2;durP2;ratioP2
27428;SDS011;14881;48.092;11.574;2023-08-06T00:00:10;9.98;;;8.98;;
27428;SDS011;14881;48.092;11.574;2023-08-06T00:02:36;10.05;;;9.00;;
27428;SDS011;14881;48.092;11.574;2023-08-06T00:05:03;17.15;;;9.43;;
27428;SDS011;14881;48.092;11.574;2023-08-06T00:07:30;10.93;;;8.85;;
27428;SDS011;14881;48.092;11.574;2023-08-06T00:09:57;9.48;;;8.45;;
27428;SDS011;14881;48.092;11.574;2023-08-06T00:12:23;9.30;;;7.75;;
27428;SDS011;14881;48.092;11.574;2023-08-06T00:14:50;8.82;;;8.00;;
27428;SDS011;14881;48.092;11.574;2023-08-06T00:17:16;10.50;;;8.10;;
27428;SDS011;14881;48.092;11.574;2023-08-06T00:19:43;8.73;;;7.47;;
27428;SDS011;14881;48.092;11.574;2023-08-06T00:22:09;9.52;;;7.75;;
27428;SDS011;14881;48.092;11.574;2023-08-06T00:24:35;10.13;;;7.65;;
27428;SDS011;14881;48.092;11.574;2023-08-06T00:27:03;10.40;;;8.30;;
27428;SDS011;14881;48.092;11.574;2023-08-06T00:29:30;11.82;;;8.10;;
27428;SDS011;14881;48.092;11.574;2023-08-06T00:31:56;13.82;;;8.57;;
27428;SDS011;14881;48.092;11.574;2023-08-06T00:34:23;8.63;;;7.53;;
27428;SDS011;14881;48.092;11.574;2023-08-06T00:36:49;8.80;;;7.90;;
27428;SDS011;14881;48.092;11.574;2023-08-06T00:39:15;8.43;;;7.55;;
27428;SDS011;14881;48.092;11.574;2023-08-06T00:41:42;9.75;;;7.63;;
27428;SDS011;14881;48.092;11.574;2023-08-06T00:44:09;6.88;;;6.05;;
27428;SDS011;14881;48.092;11.574;2023-08-06T00:46:35;8.88;;;6.32;;
27428;SDS011;14881;48.092;11.574;2023-08-06T00:49:02;11.13;;;8.02;;
27428;SDS011;14881;48.092;11.574;2023-08-06T00:51:29;8.45;;;7.55;;
27428;SDS011;14881;48.092;11.574;2023-08-06T00:53:56;8.07;;;7.28;;
27428;SDS011;14881;48.092;11.574;2023-08-06T00:56:22;9.60;;;7.38;;
27428;SDS011;14881;48.092;11.574;2023-08-06T00:58:51;8.07;;;7.13;;
27428;SDS011;14881;48.092;11.574;2023-08-06T01:01:18;8.65;;;7.72;;
27428;SDS011;14881;48.092;11.574;2023-08-06T01:03:45;9.88;;;8.55;;
27428;SDS011;14881;48.092;11.574;2023-08-06T01:06:12;9.15;;;7.93;;
27428;SDS011;14881;48.092;11.574;2023-08-06T01:08:40;8.95;;;8.05;;
27428;SDS011;14881;48.092;11.574;2023-08-06T01:11:17;9.52;;;7.63;;
27428;SDS011;14881;48.092;11.574;2023-08-06T01:13:54;9.55;;;8.27;;
27428;SDS011;14881;48.092;11.574;2023-08-06T01:16:26;9.48;;;8.50;;
27428;SDS011;14881;48.092;11.574;2023-08-06T01:18:53;10.52;;;8.50;;
27428;SDS011;14881;48.092;11.574;2023-08-06T01:21:20;9.85;;;8.85;;
27428;SDS011;14881;48.092;11.574;2023-08-06T01:23:46;10.38;;;9.32;;
27428;SDS011;14881;48.092;11.574;2023-08-06T01:26:14;9.75;;;8.75;;
27428;SDS011;14881;48.092;11.574;2023-08-06T01:28:52;10.15;;;9.15;;
27428;SDS011;14881;48.092;11.574;2023-08-06T01:31:26;7.95;;;5.97;;
27428;SDS011;14881;48.092;11.574;2023-08-06T01:33:56;14.30;;;6.65;;
27428;SDS011;14881;48.092;11.574;2023-08-06T01:36:26;7.53;;;5.88;;
27428;SDS011;14881;48.092;11.574;2023-08-06T01:38:54;8.50;;;6.38;;
27428;SDS011;14881;48.092;11.574;2023-08-06T01:41:20;12.80;;;7.13;;
27428;SDS011;14881;48.092;11.574;2023-08-06T01:43:47;10.30;;;7.13;;
27428;SDS011;14881;48.092;11.574;2023-08-06T01:46:14;11.13;;;6.88;;
27428;SDS011;14881;48.092;11.574;2023-08-06T01:48:40;7.88;;;6.43;;
27428;SDS011;14881;48.092;11.574;2023-08-06T01:51:07;8.25;;;5.65;;
27428;SDS011;14881;48.092;11.574;2023-08-06T01:53:34;8.45;;;5.93;;
27428;SDS011;14881;48.092;11.574;2023-08-06T01:56:00;8.90;;;5.90;;
27428;SDS011;14881;48.092;11.574;2023-08-06T01:58:27;6.80;;;5.63;;
27428;SDS011;14881;48.092;11.574;2023-08-06T02:00:53;6.20;;;5.18;;
27428;SDS011;14881;48.092;11.574;2023-08-06T02:03:19;8.18;;;4.80;;
27428;SDS011;14881;48.092;11.574;2023-08-06T02:05:46;7.00;;;4.57;;
27428;SDS011;14881;48.092;11.574;2023-08-06T02:08:12;6.60;;;4.93;;
27428;SDS011;14881;48.092;11.574;2023-08-06T02:10:39;6.05;;;4.47;;
27428;SDS011;14881;48.092;11.574;2023-08-06T02:13:07;7.03;;;4.63;;
27428;SDS011;14881;48.092;11.574;2023-08-06T02:15:33;7.85;;;4.70;;
27428;SDS011;14881;48.092;11.574;2023-08-06T02:17:59;7.18;;;5.15;;
27428;SDS011;14881;48.092;11.574;2023-08-06T02:20:26;6.28;;;4.50;;
27428;SDS011;14881;48.092;11.574;2023-08-06T02:22:52;5.07;;;4.57;;
27428;SDS011;14881;48.092;11.574;2023-08-06T02:25:19;5.57;;;4.47;;
27428;SDS011;14881;48.092;11.574;2023-08-06T02:27:46;6.20;;;4.72;;
27428;SDS011;14881;48.092;11.574;2023-08-06T02:30:12;7.07;;;4.63;;
27428;SDS011;14881;48.092;11.574;2023-08-06T02:32:38;5.82;;;4.03;;
27428;SDS011;14881;48.092;11.574;2023-08-06T02:35:05;5.25;;;4.03;;
27428;SDS011;14881;48.092;11.574;2023-08-06T02:37:33;6.00;;;4.00;;
27428;SDS011;14881;48.092;11.574;2023-08-06T02:39:59;5.32;;;4.15;;
27428;SDS011;14881;48.092;11.574;2023-08-06T02:42:25;4.55;;;3.97;;
27428;SDS011;14881;48.092;11.574;2023-08-06T02:44:53;5.68;;;4.20;;
27428;SDS011;14881;48.092;11.574;2023-08-06T02:47:20;4.70;;;3.65;;
27428;SDS011;14881;48.092;11.574;2023-08-06T02:49:47;6.63;;;4.20;;
27428;SDS011;14881;48.092;11.574;2023-08-06T02:52:13;4.22;;;3.83;;
27428;SDS011;14881;48.092;11.574;2023-08-06T02:54:39;5.28;;;3.75;;
27428;SDS011;14881;48.092;11.574;2023-08-06T02:57:06;4.40;;;3.95;;
27428;SDS011;14881;48.092;11.574;2023-08-06T02:59:32;5.93;;;3.75;;
27428;SDS011;14881;48.092;11.574;2023-08-06T03:02:00;8.02;;;4.28;;
27428;SDS011;14881;48.092;11.574;2023-08-06T03:04:26;5.70;;;4.25;;
27428;SDS011;14881;48.092;11.574;2023-08-06T03:06:52;5.53;;;4.22;;
27428;SDS011;14881;48.092;11.574;2023-08-06T03:09:19;5.45;;;4.00;;
27428;SDS011;14881;48.092;11.574;2023-08-06T03:11:45;4.82;;;3.90;;
27428;SDS011;14881;48.092;11.574;2023-08-06T03:14:12;5.50;;;3.25;;
27428;SDS011;14881;48.092;11.574;2023-08-06T03:16:38;3.92;;;3.53;;
27428;SDS011;14881;48.092;11.574;2023-08-06T03:19:05;5.07;;;3.63;;
27428;SDS011;14881;48.092;11.574;2023-08-06T03:21:31;6.65;;;3.55;;
27428;SDS011;14881;48.092;11.574;2023-08-06T03:23:58;4.20;;;3.75;;
27428;SDS011;14881;48.092;11.574;2023-08-06T03:26:24;6.32;;;3.45;;
27428;SDS011;14881;48.092;11.574;2023-08-06T03:28:50;4.47;;;3.35;;
27428;SDS011;14881;48.092;11.574;2023-08-06T03:31:17;4.78;;;3.88;;
27428;SDS011;14881;48.092;11.574;2023-08-06T03:33:43;4.75;;;3.22;;
27428;SDS011;14881;48.092;11.574;2023-08-06T03:36:10;2.72;;;2.50;;
27428;SDS011;14881;48.092;11.574;2023-08-06T03:38:37;4.15;;;3.13;;
27428;SDS011;14881;48.092;11.574;2023-08-06T03:41:03;4.18;;;3.50;;
27428;SDS011;14881;48.092;11.574;2023-08-06T03:43:29;5.10;;;3.47;;
27428;SDS011;14881;48.092;11.574;2023-08-06T03:45:56;4.18;;;3.08;;
27428;SDS011;14881;48.092;11.574;2023-08-06T03:48:22;3.60;;;3.08;;
27428;SDS011;14881;48.092;11.574;2023-08-06T03:50:49;3.83;;;3.10;;
27428;SDS011;14881;48.092;11.574;2023-08-06T03:53:16;4.30;;;3.00;;
27428;SDS011;14881;48.092;11.574;2023-08-06T03:55:42;5.40;;;3.10;;
27428;SDS011;14881;48.092;11.574;2023-08-06T03:58:08;6.28;;;2.90;;
27428;SDS011;14881;48.092;11.574;2023-08-06T04:00:35;4.68;;;3.15;;
27428;SDS011;14881;48.092;11.574;2023-08-06T04:03:01;3.97;;;3.17;;
27428;SDS011;14881;48.092;11.574;2023-08-06T04:05:30;4.72;;;2.80;;
27428;SDS011;14881;48.092;11.574;2023-08-06T04:07:57;3.88;;;2.85;;
27428;SDS011;14881;48.092;11.574;2023-08-06T04:10:24;4.70;;;2.90;;
27428;SDS011;14881;48.092;11.574;2023-08-06T04:12:50;3.80;;;2.75;;
27428;SDS011;14881;48.092;11.574;2023-08-06T04:15:17;3.90;;;2.70;;
27428;SDS011;14881;48.092;11.574;2023-08-06T04:17:43;4.97;;;2.42;;
27428;SDS011;14881;48.092;11.574;2023-08-06T04:20:09;3.63;;;2.70;;
27428;SDS011;14881;48.092;11.574;2023-08-06T04:22:36;4.38;;;3.20;;
27428;SDS011;14881;48.092;11.574;2023-08-06T04:25:03;3.90;;;2.60;;
27428;SDS011;14881;48.092;11.574;2023-08-06T04:27:30;3.25;;;2.60;;
27428;SDS011;14881;48.092;11.574;2023-08-06T04:29:57;3.20;;;2.72;;
27428;SDS011;14881;48.092;11.574;2023-08-06T04:32:23;3.13;;;2.60;;
27428;SDS011;14881;48.092;11.574;2023-08-06T04:34:51;5.00;;;3.03;;
27428;SDS011;14881;48.092;11.574;2023-08-06T04:37:17;3.17;;;2.45;;
27428;SDS011;14881;48.092;11.574;2023-08-06T04:39:43;3.53;;;2.40;;
27428;SDS011;14881;48.092;11.574;2023-08-06T04:42:10;3.00;;;2.67;;
27428;SDS011;14881;48.092;11.574;2023-08-06T04:44:37;4.85;;;3.33;;
27428;SDS011;14881;48.092;11.574;2023-08-06T04:47:03;4.93;;;2.70;;
27428;SDS011;14881;48.092;11.574;2023-08-06T04:49:30;3.90;;;2.83;;
27428;SDS011;14881;48.092;11.574;2023-08-06T04:51:56;5.30;;;3.00;;
27428;SDS011;14881;48.092;11.574;2023-08-06T04:54:22;5.90;;;3.28;;
27428;SDS011;14881;48.092;11.574;2023-08-06T04:56:49;4.03;;;2.60;;
27428;SDS011;14881;48.092;11.574;2023-08-06T04:59:15;4.80;;;3.53;;
27428;SDS011;14881;48.092;11.574;2023-08-06T05:01:42;3.90;;;3.50;;
27428;SDS011;14881;48.092;11.574;2023-08-06T05:04:08;5.53;;;4.30;;
27428;SDS011;14881;48.092;11.574;2023-08-06T05:06:35;8.50;;;4.50;;
27428;SDS011;14881;48.092;11.574;2023-08-06T05:09:03;5.10;;;3.72;;
27428;SDS011;14881;48.092;11.574;2023-08-06T05:11:30;3.95;;;3.63;;
27428;SDS011;14881;48.092;11.574;2023-08-06T05:13:56;5.00;;;3.30;;
27428;SDS011;14881;48.092;11.574;2023-08-06T05:16:23;4.72;;;3.65;;
27428;SDS011;14881;48.092;11.574;2023-08-06T05:18:50;4.90;;;3.78;;
27428;SDS011;14881;48.092;11.574;2023-08-06T05:21:17;4.88;;;3.78;;
27428;SDS011;14881;48.092;11.574;2023-08-06T05:23:43;4.47;;;3.60;;
27428;SDS011;14881;48.092;11.574;2023-08-06T05:26:09;4.65;;;3.67;;
27428;SDS011;14881;48.092;11.574;2023-08-06T05:28:36;4.40;;;3.35;;
27428;SDS011;14881;48.092;11.574;2023-08-06T05:31:03;5.28;;;3.33;;
27428;SDS011;14881;48.092;11.574;2023-08-06T05:33:29;4.15;;;3.42;;
27428;SDS011;14881;48.092;11.574;2023-08-06T05:35:57;3.65;;;2.95;;
27428;SDS011;14881;48.092;11.574;2023-08-06T05:38:23;3.47;;;2.88;;
27428;SDS011;14881;48.092;11.574;2023-08-06T05:40:49;5.35;;;3.47;;
27428;SDS011;14881;48.092;11.574;2023-08-06T05:43:16;4.55;;;3.40;;
27428;SDS011;14881;48.092;11.574;2023-08-06T05:45:44;3.88;;;3.22;;
27428;SDS011;14881;48.092;11.574;2023-08-06T05:48:10;6.65;;;3.17;;
27428;SDS011;14881;48.092;11.574;2023-08-06T05:50:36;3.53;;;3.10;;
27428;SDS011;14881;48.092;11.574;2023-08-06T05:53:04;4.30;;;3.05;;
27428;SDS011;14881;48.092;11.574;2023-08-06T05:55:30;3.13;;;2.83;;
27428;SDS011;14881;48.092;11.574;2023-08-06T05:57:57;4.53;;;2.88;;
27428;SDS011;14881;48.092;11.574;2023-08-06T06:00:24;3.45;;;3.15;;
27428;SDS011;14881;48.092;11.574;2023-08-06T06:02:50;4.25;;;2.67;;
27428;SDS011;14881;48.092;11.574;2023-08-06T06:05:17;3.47;;;3.10;;
27428;SDS011;14881;48.092;11.574;2023-08-06T06:07:43;3.35;;;2.55;;
27428;SDS011;14881;48.092;11.574;2023-08-06T06:10:10;4.60;;;3.15;;
27428;SDS011;14881;48.092;11.574;2023-08-06T06:12:38;6.88;;;3.35;;
27428;SDS011;14881;48.092;11.574;2023-08-06T06:15:05;3.00;;;2.20;;
27428;SDS011;14881;48.092;11.574;2023-08-06T06:17:32;5.20;;;2.97;;
27428;SDS011;14881;48.092;11.574;2023-08-06T06:19:58;3.08;;;2.70;;
27428;SDS011;14881;48.092;11.574;2023-08-06T06:22:25;4.18;;;2.50;;
27428;SDS011;14881;48.092;11.574;2023-08-06T06:24:51;3.35;;;2.60;;
27428;SDS011;14881;48.092;11.574;2023-08-06T06:27:18;4.15;;;2.47;;
27428;SDS011;14881;48.092;11.574;2023-08-06T06:29:44;3.20;;;2.90;;
27428;SDS011;14881;48.092;11.574;2023-08-06T06:32:11;3.20;;;2.90;;
27428;SDS011;14881;48.092;11.574;2023-08-06T06:34:37;2.80;;;2.60;;
27428;SDS011;14881;48.092;11.574;2023-08-06T06:37:04;3.65;;;2.45;;
27428;SDS011;14881;48.092;11.574;2023-08-06T06:39:31;3.00;;;2.40;;
27428;SDS011;14881;48.092;11.574;2023-08-06T06:41:57;4.15;;;2.30;;
27428;SDS011;14881;48.092;11.574;2023-08-06T06:44:24;2.97;;;2.35;;
27428;SDS011;14881;48.092;11.574;2023-08-06T06:46:50;3.20;;;2.45;;
27428;SDS011;14881;48.092;11.574;2023-08-06T06:49:17;3.65;;;2.67;;
27428;SDS011;14881;48.092;11.574;2023-08-06T06:51:43;2.95;;;2.67;;
27428;SDS011;14881;48.092;11.574;2023-08-06T06:54:09;4.65;;;2.67;;
27428;SDS011;14881;48.092;11.574;2023-08-06T06:56:37;3.30;;;2.30;;
27428;SDS011;14881;48.092;11.574;2023-08-06T06:59:03;5.93;;;2.47;;
27428;SDS011;14881;48.092;11.574;2023-08-06T07:01:30;4.32;;;2.53;;
27428;SDS011;14881;48.092;11.574;2023-08-06T07:03:57;5.65;;;2.40;;
27428;SDS011;14881;48.092;11.574;2023-08-06T07:06:23;3.00;;;2.08;;
27428;SDS011;14881;48.092;11.574;2023-08-06T07:08:50;4.82;;;1.83;;
27428;SDS011;14881;48.092;11.574;2023-08-06T07:11:16;4.03;;;1.58;;
27428;SDS011;14881;48.092;11.574;2023-08-06T07:13:42;3.65;;;1.42;;
27428;SDS011;14881;48.092;11.574;2023-08-06T07:16:09;1.98;;;1.30;;
27428;SDS011;14881;48.092;11.574;2023-08-06T07:18:37;2.60;;;1.52;;
27428;SDS011;14881;48.092;11.574;2023-08-06T07:21:04;2.67;;;1.23;;
27428;SDS011;14881;48.092;11.574;2023-08-06T07:23:30;2.05;;;1.50;;
27428;SDS011;14881;48.092;11.574;2023-08-06T07:25:57;3.20;;;1.40;;
27428;SDS011;14881;48.092;11.574;2023-08-06T07:28:23;5.45;;;1.40;;
27428;SDS011;14881;48.092;11.574;2023-08-06T07:30:50;4.68;;;1.98;;
27428;SDS011;14881;48.092;11.574;2023-08-06T07:33:16;5.22;;;1.60;;
27428;SDS011;14881;48.092;11.574;2023-08-06T07:35:43;3.30;;;1.40;;
27428;SDS011;14881;48.092;11.574;2023-08-06T07:38:10;3.65;;;1.92;;
27428;SDS011;14881;48.092;11.574;2023-08-06T07:40:36;3.65;;;1.67;;
27428;SDS011;14881;48.092;11.574;2023-08-06T07:43:03;2.97;;;1.70;;
27428;SDS011;14881;48.092;11.574;2023-08-06T07:45:32;2.97;;;1.40;;
27428;SDS011;14881;48.092;11.574;2023-08-06T07:47:59;3.03;;;1.77;;
27428;SDS011;14881;48.092;11.574;2023-08-06T07:50:26;2.67;;;1.42;;
27428;SDS011;14881;48.092;11.574;2023-08-06T07:52:53;4.40;;;1.67;;
27428;SDS011;14881;48.092;11.574;2023-08-06T07:55:19;3.42;;;1.40;;
27428;SDS011;14881;48.092;11.574;2023-08-06T07:57:46;3.67;;;1.85;;
27428;SDS011;14881;48.092;11.574;2023-08-06T08:00:12;3.55;;;1.45;;
27428;SDS011;14881;48.092;11.574;2023-08-06T08:02:39;2.83;;;1.67;;
27428;SDS011;14881;48.092;11.574;2023-08-06T08:05:05;2.35;;;1.52;;
27428;SDS011;14881;48.092;11.574;2023-08-06T08:07:33;4.68;;;1.55;;
27428;SDS011;14881;48.092;11.574;2023-08-06T08:10:00;1.65;;;1.27;;
27428;SDS011;14881;48.092;11.574;2023-08-06T08:12:27;9.07;;;1.90;;
27428;SDS011;14881;48.092;11.574;2023-08-06T08:14:53;2.85;;;1.60;;
27428;SDS011;14881;48.092;11.574;2023-08-06T08:17:21;1.75;;;1.27;;
27428;SDS011;14881;48.092;11.574;2023-08-06T08:19:47;3.55;;;1.42;;
27428;SDS011;14881;48.092;11.574;2023-08-06T08:22:14;5.85;;;1.42;;
27428;SDS011;14881;48.092;11.574;2023-08-06T08:27:23;1.70;;;1.20;;
27428;SDS011;14881;48.092;11.574;2023-08-06T08:29:49;1.92;;;1.00;;
27428;SDS011;14881;48.092;11.574;2023-08-06T08:32:16;2.00;;;1.15;;
27428;SDS011;14881;48.092;11.574;2023-08-06T08:34:42;2.15;;;0.88;;
27428;SDS011;14881;48.092;11.574;2023-08-06T08:37:09;1.27;;;0.80;;
27428;SDS011;14881;48.092;11.574;2023-08-06T08:39:36;1.92;;;1.02;;
27428;SDS011;14881;48.092;11.574;2023-08-06T08:42:02;3.65;;;0.90;;
27428;SDS011;14881;48.092;11.574;2023-08-06T08:44:30;0.70;;;0.50;;
27428;SDS011;14881;48.092;11.574;2023-08-06T08:46:57;7.50;;;1.35;;
27428;SDS011;14881;48.092;11.574;2023-08-06T08:49:25;1.90;;;0.60;;
27428;SDS011;14881;48.092;11.574;2023-08-06T08:51:53;1.58;;;0.70;;
27428;SDS011;14881;48.092;11.574;2023-08-06T08:54:21;2.90;;;0.65;;
27428;SDS011;14881;48.092;11.574;2023-08-06T08:56:49;2.65;;;0.50;;
27428;SDS011;14881;48.092;11.574;2023-08-06T08:59:16;3.13;;;0.68;;
27428;SDS011;14881;48.092;11.574;2023-08-06T09:01:43;1.13;;;0.60;;
27428;SDS011;14881;48.092;11.574;2023-08-06T09:04:15;2.33;;;0.45;;
27428;SDS011;14881;48.092;11.574;2023-08-06T09:06:42;1.48;;;0.50;;
27428;SDS011;14881;48.092;11.574;2023-08-06T09:09:12;0.35;;;0.30;;
27428;SDS011;14881;48.092;11.574;2023-08-06T09:11:43;2.33;;;0.60;;
27428;SDS011;14881;48.092;11.574;2023-08-06T09:14:11;0.60;;;0.30;;
27428;SDS011;14881;48.092;11.574;2023-08-06T09:16:37;1.23;;;0.40;;
27428;SDS011;14881;48.092;11.574;2023-08-06T09:19:08;2.72;;;0.60;;
27428;SDS011;14881;48.092;11.574;2023-08-06T09:21:36;1.63;;;0.60;;
27428;SDS011;14881;48.092;11.574;2023-08-06T09:24:06;0.68;;;0.50;;
27428;SDS011;14881;48.092;11.574;2023-08-06T09:26:34;1.92;;;0.32;;
27428;SDS011;14881;48.092;11.574;2023-08-06T09:29:02;0.70;;;0.50;;
27428;SDS011;14881;48.092;11.574;2023-08-06T09:31:32;0.68;;;0.30;;
27428;SDS011;14881;48.092;11.574;2023-08-06T09:33:59;1.67;;;0.60;;
27428;SDS011;14881;48.092;11.574;2023-08-06T09:36:26;2.92;;;0.65;;
27428;SDS011;14881;48.092;11.574;2023-08-06T09:38:53;1.90;;;0.77;;
27428;SDS011;14881;48.092;11.574;2023-08-06T09:41:25;2.25;;;0.68;;
27428;SDS011;14881;48.092;11.574;2023-08-06T09:43:53;0.77;;;0.50;;
27428;SDS011;14881;48.092;11.574;2023-08-06T09:46:19;4.45;;;0.80;;
27428;SDS011;14881;48.092;11.574;2023-08-06T09:48:47;1.38;;;0.40;;
27428;SDS011;14881;48.092;11.574;2023-08-06T09:51:14;2.83;;;0.50;;
27428;SDS011;14881;48.092;11.574;2023-08-06T09:53:41;0.52;;;0.40;;
27428;SDS011;14881;48.092;11.574;2023-08-06T09:56:08;0.52;;;0.25;;
27428;SDS011;14881;48.092;11.574;2023-08-06T09:58:36;1.98;;;0.40;;
27428;SDS011;14881;48.092;11.574;2023-08-06T10:01:04;0.55;;;0.50;;
27428;SDS011;14881;48.092;11.574;2023-08-06T10:03:31;0.98;;;0.40;;
27428;SDS011;14881;48.092;11.574;2023-08-06T10:05:59;2.90;;;0.60;;
27428;SDS011;14881;48.092;11.574;2023-08-06T10:08:28;0.10;;;0.10;;
27428;SDS011;14881;48.092;11.574;2023-08-06T10:10:55;1.02;;;0.30;;
27428;SDS011;14881;48.092;11.574;2023-08-06T10:13:23;0.20;;;0.20;;
27428;SDS011;14881;48.092;11.574;2023-08-06T10:15:50;2.08;;;0.43;;
27428;SDS011;14881;48.092;11.574;2023-08-06T10:18:17;1.75;;;0.40;;
27428;SDS011;14881;48.092;11.574;2023-08-06T10:20:46;2.53;;;0.20;;
27428;SDS011;14881;48.092;11.574;2023-08-06T10:23:13;1.15;;;0.40;;
27428;SDS011;14881;48.092;11.574;2023-08-06T10:25:40;0.43;;;0.40;;
27428;SDS011;14881;48.092;11.574;2023-08-06T10:28:09;0.82;;;0.43;;
27428;SDS011;14881;48.092;11.574;2023-08-06T10:30:43;0.20;;;0.20;;
27428;SDS011;14881;48.092;11.574;2023-08-06T10:33:11;1.10;;;0.40;;
27428;SDS011;14881;48.092;11.574;2023-08-06T10:35:38;3.13;;;0.30;;
27428;SDS011;14881;48.092;11.574;2023-08-06T10:38:09;0.57;;;0.40;;
27428;SDS011;14881;48.092;11.574;2023-08-06T10:40:37;0.75;;;0.40;;
27428;SDS011;14881;48.092;11.574;2023-08-06T10:43:05;0.95;;;0.45;;
27428;SDS011;14881;48.092;11.574;2023-08-06T10:45:37;1.73;;;0.40;;
27428;SDS011;14881;48.092;11.574;2023-08-06T10:48:04;1.70;;;0.40;;
27428;SDS011;14881;48.092;11.574;2023-08-06T10:50:30;0.30;;;0.30;;
27428;SDS011;14881;48.092;11.574;2023-08-06T10:52:58;0.28;;;0.20;;
27428;SDS011;14881;48.092;11.574;2023-08-06T10:55:30;0.65;;;0.25;;
27428;SDS011;14881;48.092;11.574;2023-08-06T10:57:57;0.38;;;0.22;;
27428;SDS011;14881;48.092;11.574;2023-08-06T11:00:24;3.33;;;0.45;;
27428;SDS011;14881;48.092;11.574;2023-08-06T11:02:51;0.68;;;0.28;;
27428;SDS011;14881;48.092;11.574;2023-08-06T11:05:19;0.22;;;0.10;;
27428;SDS011;14881;48.092;11.574;2023-08-06T11:07:45;1.65;;;0.28;;
27428;SDS011;14881;48.092;11.574;2023-08-06T11:10:13;0.75;;;0.20;;
27428;SDS011;14881;48.092;11.574;2023-08-06T11:12:40;0.75;;;0.30;;
27428;SDS011;14881;48.092;11.574;2023-08-06T11:15:07;1.90;;;0.20;;
27428;SDS011;14881;48.092;11.574;2023-08-06T11:17:34;0.45;;;0.22;;
27428;SDS011;14881;48.092;11.574;2023-08-06T11:20:02;0.10;;;0.10;;
27428;SDS011;14881;48.092;11.574;2023-08-06T11:22:30;1.10;;;0.20;;
27428;SDS011;14881;48.092;11.574;2023-08-06T11:24:57;0.40;;;0.20;;
27428;SDS011;14881;48.092;11.574;2023-08-06T11:27:26;0.40;;;0.40;;
27428;SDS011;14881;48.092;11.574;2023-08-06T11:29:53;0.90;;;0.20;;
27428;SDS011;14881;48.092;11.574;2023-08-06T11:32:20;0.80;;;0.50;;
27428;SDS011;14881;48.092;11.574;2023-08-06T11:34:47;1.75;;;0.20;;
27428;SDS011;14881;48.092;11.574;2023-08-06T11:37:14;0.20;;;0.20;;
27428;SDS011;14881;48.092;11.574;2023-08-06T11:39:44;0.20;;;0.20;;
27428;SDS011;14881;48.092;11.574;2023-08-06T11:42:12;1.55;;;0.20;;
27428;SDS011;14881;48.092;11.574;2023-08-06T11:44:40;0.40;;;0.20;;
27428;SDS011;14881;48.092;11.574;2023-08-06T11:47:12;0.55;;;0.10;;
27428;SDS011;14881;48.092;11.574;2023-08-06T11:49:40;1.30;;;0.50;;
27428;SDS011;14881;48.092;11.574;2023-08-06T11:52:12;0.13;;;0.10;;
27428;SDS011;14881;48.092;11.574;2023-08-06T11:54:41;2.45;;;0.30;;
27428;SDS011;14881;48.092;11.574;2023-08-06T11:57:07;0.22;;;0.22;;
27428;SDS011;14881;48.092;11.574;2023-08-06T11:59:34;1.65;;;0.20;;
27428;SDS011;14881;48.092;11.574;2023-08-06T12:02:01;0.43;;;0.30;;
27428;SDS011;14881;48.092;11.574;2023-08-06T12:04:28;0.40;;;0.40;;
27428;SDS011;14881;48.092;11.574;2023-08-06T12:06:54;0.73;;;0.17;;
27428;SDS011;14881;48.092;11.574;2023-08-06T12:09:21;0.50;;;0.20;;
27428;SDS011;14881;48.092;11.574;2023-08-06T12:11:48;0.80;;;0.30;;
27428;SDS011;14881;48.092;11.574;2023-08-06T12:14:15;1.65;;;0.30;;
27428;SDS011;14881;48.092;11.574;2023-08-06T12:16:41;0.30;;;0.28;;
27428;SDS011;14881;48.092;11.574;2023-08-06T12:19:08;2.92;;;0.38;;
27428;SDS011;14881;48.092;11.574;2023-08-06T12:21:34;0.20;;;0.20;;
27428;SDS011;14881;48.092;11.574;2023-08-06T12:24:00;0.20;;;0.20;;
27428;SDS011;14881;48.092;11.574;2023-08-06T12:26:27;0.30;;;0.30;;
27428;SDS011;14881;48.092;11.574;2023-08-06T12:28:54;2.50;;;0.20;;
27428;SDS011;14881;48.092;11.574;2023-08-06T12:31:22;0.57;;;0.55;;
27428;SDS011;14881;48.092;11.574;2023-08-06T12:33:48;0.10;;;0.10;;
27428;SDS011;14881;48.092;11.574;2023-08-06T12:36:15;1.90;;;0.22;;
27428;SDS011;14881;48.092;11.574;2023-08-06T12:38:41;2.22;;;0.28;;
27428;SDS011;14881;48.092;11.574;2023-08-06T12:41:07;0.30;;;0.30;;
27428;SDS011;14881;48.092;11.574;2023-08-06T12:43:34;0.65;;;0.43;;
27428;SDS011;14881;48.092;11.574;2023-08-06T12:46:01;0.75;;;0.32;;
27428;SDS011;14881;48.092;11.574;2023-08-06T12:48:27;0.65;;;0.43;;
27428;SDS011;14881;48.092;11.574;2023-08-06T12:50:54;2.67;;;0.30;;
27428;SDS011;14881;48.092;11.574;2023-08-06T12:53:20;0.35;;;0.35;;
27428;SDS011;14881;48.092;11.574;2023-08-06T12:55:48;1.52;;;0.40;;
27428;SDS011;14881;48.092;11.574;2023-08-06T12:58:15;0.38;;;0.38;;
27428;SDS011;14881;48.092;11.574;2023-08-06T13:00:42;0.40;;;0.40;;
27428;SDS011;14881;48.092;11.574;2023-08-06T13:03:08;1.13;;;0.60;;
27428;SDS011;14881;48.092;11.574;2023-08-06T13:05:35;0.40;;;0.40;;
27428;SDS011;14881;48.092;11.574;2023-08-06T13:08:01;0.60;;;0.60;;
27428;SDS011;14881;48.092;11.574;2023-08-06T13:10:28;0.55;;;0.43;;
27428;SDS011;14881;48.092;11.574;2023-08-06T13:12:54;0.57;;;0.50;;
27428;SDS011;14881;48.092;11.574;2023-08-06T13:15:21;2.08;;;0.50;;
27428;SDS011;14881;48.092;11.574;2023-08-06T13:17:48;0.52;;;0.50;;
27428;SDS011;14881;48.092;11.574;2023-08-06T13:20:14;0.60;;;0.50;;
27428;SDS011;14881;48.092;11.574;2023-08-06T13:22:44;2.10;;;0.55;;
27428;SDS011;14881;48.092;11.574;2023-08-06T13:25:12;1.05;;;0.60;;
27428;SDS011;14881;48.092;11.574;2023-08-06T13:27:40;0.40;;;0.40;;
27428;SDS011;14881;48.092;11.574;2023-08-06T13:30:07;1.60;;;0.47;;
27428;SDS011;14881;48.092;11.574;2023-08-06T13:32:34;1.48;;;0.73;;
27428;SDS011;14881;48.092;11.574;2023-08-06T13:35:03;0.45;;;0.45;;
27428;SDS011;14881;48.092;11.574;2023-08-06T13:37:30;0.55;;;0.40;;
27428;SDS011;14881;48.092;11.574;2023-08-06T13:39:56;0.77;;;0.60;;
27428;SDS011;14881;48.092;11.574;2023-08-06T13:42:23;0.75;;;0.75;;
27428;SDS011;14881;48.092;11.574;2023-08-06T13:44:49;0.85;;;0.75;;
27428;SDS011;14881;48.092;11.574;2023-08-06T13:47:16;0.75;;;0.50;;
27428;SDS011;14881;48.092;11.574;2023-08-06T13:49:42;0.50;;;0.50;;
27428;SDS011;14881;48.092;11.574;2023-08-06T13:52:09;0.50;;;0.47;;
27428;SDS011;14881;48.092;11.574;2023-08-06T13:54:47;0.50;;;0.50;;
27428;SDS011;14881;48.092;11.574;2023-08-06T13:57:14;1.80;;;0.65;;
27428;SDS011;14881;48.092;11.574;2023-08-06T13:59:42;0.57;;;0.45;;
27428;SDS011;14881;48.092;11.574;2023-08-06T14:02:09;1.00;;;0.68;;
27428;SDS011;14881;48.092;11.574;2023-08-06T14:04:35;1.20;;;0.50;;
27428;SDS011;14881;48.092;11.574;2023-08-06T14:07:03;0.80;;;0.50;;
27428;SDS011;14881;48.092;11.574;2023-08-06T14:09:30;0.30;;;0.30;;
27428;SDS011;14881;48.092;11.574;2023-08-06T14:11:57;0.40;;;0.40;;
27428;SDS011;14881;48.092;11.574;2023-08-06T14:14:23;0.68;;;0.47;;
27428;SDS011;14881;48.092;11.574;2023-08-06T14:16:51;0.95;;;0.60;;
27428;SDS011;14881;48.092;11.574;2023-08-06T14:19:18;0.60;;;0.60;;
27428;SDS011;14881;48.092;11.574;2023-08-06T14:21:45;1.42;;;0.70;;
27428;SDS011;14881;48.092;11.574;2023-08-06T14:24:11;0.70;;;0.70;;
27428;SDS011;14881;48.092;11.574;2023-08-06T14:26:39;1.25;;;0.90;;
27428;SDS011;14881;48.092;11.574;2023-08-06T14:29:06;0.70;;;0.70;;
27428;SDS011;14881;48.092;11.574;2023-08-06T14:31:33;2.25;;;0.40;;
27428;SDS011;14881;48.092;11.574;2023-08-06T14:33:59;3.22;;;0.70;;